createdAt,value
2019-02-07T00:01:35.329Z,60.77
2019-02-07T00:09:31.961Z,49.50
2019-02-07T00:12:00.515Z,50.37
2019-02-07T00:14:39.310Z,47.03
2019-02-07T00:16:59.129Z,52.70
2019-02-07T00:22:20.568Z,49.43
2019-02-07T00:24:48.995Z,59.83
2019-02-07T00:27:17.403Z,55.23
2019-02-07T00:29:45.815Z,55.90
2019-02-07T00:32:14.255Z,58.90
2019-02-07T00:34:44.376Z,51.30
2019-02-07T00:37:12.780Z,56.27
2019-02-07T00:42:15.295Z,63.67
2019-02-07T00:45:03.072Z,53.97
2019-02-07T00:47:31.479Z,52.80
2019-02-07T00:49:59.883Z,64.87
2019-02-07T00:55:01.960Z,67.10
2019-02-07T00:57:30.373Z,54.30
2019-02-07T01:00:00.539Z,51.43
2019-02-07T01:02:28.944Z,63.57
2019-02-07T01:04:57.360Z,52.70
2019-02-07T01:13:13.023Z,53.27
2019-02-07T01:15:41.503Z,66.23
2019-02-07T01:18:49.969Z,58.10
2019-02-07T01:21:18.395Z,67.27
2019-02-07T01:23:46.867Z,58.53
2019-02-07T01:26:15.289Z,57.57
2019-02-07T01:28:45.419Z,59.47
2019-02-07T01:31:13.823Z,50.20
2019-02-07T01:36:16.184Z,58.20
2019-02-07T01:38:44.609Z,47.53
2019-02-07T01:41:13.024Z,51.67
2019-02-07T01:43:41.427Z,70.80
2019-02-07T01:46:09.854Z,56.13
2019-02-07T01:48:38.281Z,58.83
2019-02-07T01:51:06.745Z,60.63
2019-02-07T01:59:44.326Z,68.40
2019-02-07T02:02:12.756Z,67.43
2019-02-07T02:04:41.150Z,61.63
2019-02-07T02:07:09.632Z,57.60
2019-02-07T02:10:18.050Z,57.70
2019-02-07T02:13:05.717Z,61.43
2019-02-07T02:15:45.958Z,54.90
2019-02-07T02:18:14.430Z,64.60
2019-02-07T02:20:42.837Z,57.67
2019-02-07T02:28:58.948Z,54.07
2019-02-07T02:31:46.563Z,54.53
2019-02-07T02:36:49.476Z,58.33
2019-02-07T02:39:17.974Z,58.67
2019-02-07T02:41:46.388Z,58.60
2019-02-07T02:44:55.048Z,55.07
2019-02-07T02:47:23.522Z,61.30
2019-02-07T02:52:46.654Z,50.03
2019-02-07T02:55:54.980Z,51.23
2019-02-07T02:58:23.582Z,47.33
2019-02-07T03:01:11.106Z,54.13
2019-02-07T03:06:34.008Z,59.47
2019-02-07T03:09:21.540Z,50.77
2019-02-07T03:12:09.097Z,44.30
2019-02-07T03:14:56.651Z,45.37
2019-02-07T03:17:44.534Z,48.20
2019-02-07T03:23:40.336Z,44.13
2019-02-07T03:26:48.678Z,42.50
2019-02-07T03:29:37.955Z,42.43
2019-02-07T03:37:53.333Z,47.73
2019-02-07T03:41:01.657Z,44.73
2019-02-07T03:43:49.203Z,52.37
2019-02-07T03:46:36.740Z,50.83
2019-02-07T03:54:58.372Z,50.40
2019-02-07T04:03:10.722Z,76.77
2019-02-07T04:08:47.428Z,60.67
2019-02-07T04:11:34.967Z,45.27
2019-02-07T04:17:17.840Z,44.93
2019-02-07T04:20:05.560Z,51.80
2019-02-07T04:25:28.543Z,49.73
2019-02-07T04:28:16.069Z,48.77
2019-02-07T04:36:37.469Z,44.10
2019-02-07T04:39:45.793Z,45.27
2019-02-07T04:47:51.401Z,47.50
2019-02-07T04:50:38.940Z,48.37
2019-02-07T04:53:26.524Z,59.90
2019-02-07T04:56:14.047Z,44.10
2019-02-07T04:59:01.694Z,47.80
2019-02-07T05:01:49.229Z,44.07
2019-02-07T05:07:31.513Z,47.77
2019-02-07T05:10:38.279Z,47.73
2019-02-07T05:13:25.832Z,51.63
2019-02-07T05:16:13.428Z,55.17
2019-02-07T05:19:00.993Z,49.83
2019-02-07T05:24:56.879Z,47.73
2019-02-07T05:27:44.409Z,51.40
2019-02-07T05:30:51.379Z,49.37
2019-02-07T05:33:39.090Z,46.37
2019-02-07T05:36:26.720Z,45.17
2019-02-07T05:42:03.452Z,43.97
2019-02-07T05:44:50.979Z,43.83
2019-02-07T05:50:17.559Z,40.50
2019-02-07T05:56:32.965Z,44.73
2019-02-07T06:05:24.943Z,48.93
2019-02-07T06:08:12.491Z,43.30
2019-02-07T06:11:00.040Z,47.37
2019-02-07T06:14:07.187Z,37.83
2019-02-07T06:17:02.312Z,37.10
2019-02-07T06:19:44.005Z,34.90
2019-02-07T06:22:31.649Z,33.97
2019-02-07T06:25:38.799Z,40.63
2019-02-07T06:28:45.709Z,36.37
2019-02-07T06:31:33.239Z,40.57
2019-02-07T06:37:36.810Z,34.90
2019-02-07T06:40:45.129Z,43.37
2019-02-07T06:43:32.696Z,42.80
2019-02-07T06:49:09.659Z,39.13
2019-02-07T06:51:57.180Z,40.00
2019-02-07T06:54:44.739Z,40.10
2019-02-07T07:00:21.435Z,40.53
2019-02-07T07:03:10.689Z,36.30
2019-02-07T07:05:58.324Z,35.50
2019-02-07T07:08:45.857Z,38.43
2019-02-07T07:11:33.421Z,37.33
2019-02-07T07:14:20.955Z,36.60
2019-02-07T07:17:27.882Z,32.07
2019-02-07T07:20:15.413Z,34.33
2019-02-07T07:28:32.880Z,37.40
2019-02-07T07:31:20.524Z,38.13
2019-02-07T07:34:08.395Z,34.00
2019-02-07T07:36:55.994Z,32.27
2019-02-07T07:42:22.507Z,34.07
2019-02-07T07:45:10.033Z,33.63
2019-02-07T07:47:57.747Z,35.53
2019-02-07T07:50:45.344Z,42.47
2019-02-07T07:53:33.217Z,34.47
2019-02-07T07:56:40.095Z,36.97
2019-02-07T08:04:57.454Z,39.93
2019-02-07T08:07:44.984Z,35.97
2019-02-07T08:13:26.961Z,35.27
2019-02-07T08:16:14.492Z,34.93
2019-02-07T08:19:02.050Z,37.37
2019-02-07T08:24:38.783Z,36.87
2019-02-07T08:27:38.575Z,33.97
2019-02-07T08:30:47.000Z,39.33
2019-02-07T08:33:34.538Z,39.53
2019-02-07T08:39:36.011Z,37.37
2019-02-07T08:42:42.875Z,35.93
2019-02-07T08:45:50.015Z,38.93
2019-02-07T08:48:37.919Z,36.73
2019-02-07T08:51:25.471Z,35.30
2019-02-07T08:57:21.101Z,46.67
2019-02-07T09:00:08.915Z,46.30
2019-02-07T09:03:15.900Z,44.63
2019-02-07T09:06:22.685Z,46.27
2019-02-07T09:09:10.294Z,40.43
2019-02-07T09:11:57.819Z,38.77
2019-02-07T09:14:45.490Z,43.30
2019-02-07T09:20:22.259Z,41.73
2019-02-07T09:23:09.797Z,48.77
2019-02-07T09:25:57.914Z,37.47
2019-02-07T09:28:47.260Z,42.10
2019-02-07T09:31:54.150Z,36.57
2019-02-07T09:35:02.472Z,37.37
2019-02-07T09:37:50.051Z,38.27
2019-02-07T09:40:58.369Z,32.67
2019-02-07T09:43:45.932Z,32.33
2019-02-07T09:57:35.108Z,32.63
2019-02-07T10:03:30.827Z,37.63
2019-02-07T10:09:07.619Z,31.33
2019-02-07T10:11:55.164Z,31.00
2019-02-07T10:14:43.007Z,29.47
2019-02-07T10:20:19.634Z,26.37
2019-02-07T10:25:56.295Z,33.90
2019-02-07T10:31:33.011Z,29.63
2019-02-07T10:34:20.624Z,34.70
2019-02-07T10:39:47.176Z,26.07
2019-02-07T10:42:34.709Z,33.47
2019-02-07T10:48:17.157Z,34.33
2019-02-07T10:51:04.700Z,31.37
2019-02-07T10:53:52.322Z,31.17
2019-02-07T10:56:39.847Z,33.23
2019-02-07T10:59:27.911Z,34.70
2019-02-07T11:05:44.399Z,33.00
2019-02-07T11:08:31.925Z,34.90
2019-02-07T11:11:19.483Z,32.73
2019-02-07T11:14:07.026Z,37.90
2019-02-07T11:16:54.593Z,37.93
2019-02-07T11:22:50.568Z,36.57
2019-02-07T11:28:46.597Z,32.60
2019-02-07T11:31:34.402Z,30.47
2019-02-07T11:34:21.947Z,33.03
2019-02-07T11:39:58.650Z,31.93
2019-02-07T11:42:46.171Z,31.40
2019-02-07T11:45:54.534Z,34.17
2019-02-07T11:54:10.076Z,26.63
2019-02-07T11:56:57.614Z,39.70
2019-02-07T11:59:45.256Z,33.00
2019-02-07T12:02:52.402Z,36.83
2019-02-07T12:05:40.368Z,32.17
2019-02-07T12:08:47.241Z,29.13
2019-02-07T12:11:34.939Z,39.27
2019-02-07T12:14:22.540Z,35.27
2019-02-07T12:19:49.133Z,31.53
2019-02-07T12:22:37.476Z,32.97
2019-02-07T12:25:47.059Z,29.33
2019-02-07T12:28:36.112Z,31.53
2019-02-07T12:31:44.655Z,35.37
2019-02-07T12:37:40.337Z,33.80
2019-02-07T12:40:48.657Z,39.47
2019-02-07T12:43:36.331Z,34.50
2019-02-07T12:54:30.599Z,29.47
2019-02-07T12:57:18.143Z,25.63
2019-02-07T13:00:05.775Z,27.93
2019-02-07T13:02:53.300Z,23.93
2019-02-07T13:05:40.966Z,28.47
2019-02-07T13:08:28.630Z,26.97
2019-02-07T13:11:16.200Z,29.03
2019-02-07T13:14:03.777Z,25.93
2019-02-07T13:16:51.323Z,25.57
2019-02-07T13:19:40.728Z,20.43
2019-02-07T13:22:28.211Z,24.53
2019-02-07T13:28:05.029Z,21.67
2019-02-07T13:30:52.523Z,18.50
2019-02-07T13:33:40.132Z,25.37
2019-02-07T13:36:48.517Z,31.80
2019-02-07T13:39:37.611Z,34.10
2019-02-07T13:42:46.091Z,27.33
2019-02-07T13:45:54.569Z,20.17
2019-02-07T13:48:42.098Z,21.60
2019-02-07T13:54:05.043Z,38.87
2019-02-07T13:56:52.570Z,28.43
2019-02-07T13:59:40.487Z,30.13
2019-02-07T14:02:48.823Z,33.03
2019-02-07T14:05:38.585Z,33.17
2019-02-07T14:08:25.723Z,30.67
2019-02-07T14:11:13.295Z,33.40
2019-02-07T14:14:00.821Z,28.27
2019-02-07T14:16:48.416Z,32.83
2019-02-07T14:19:36.007Z,32.97
2019-02-07T14:25:07.147Z,35.03
2019-02-07T14:30:43.760Z,30.37
2019-02-07T14:33:31.299Z,32.37
2019-02-07T14:36:19.015Z,30.33
2019-02-07T14:39:06.540Z,28.53
2019-02-07T14:41:54.552Z,29.77
2019-02-07T14:47:12.096Z,28.17
2019-02-07T14:49:40.572Z,31.43
2019-02-07T14:52:09.046Z,27.67
2019-02-07T14:54:37.474Z,27.20
2019-02-07T14:57:45.790Z,28.13
2019-02-07T15:00:54.234Z,27.80
2019-02-07T15:03:24.362Z,28.37
2019-02-07T15:05:52.795Z,30.13
2019-02-07T15:11:14.604Z,38.77
2019-02-07T15:13:43.432Z,36.63
2019-02-07T15:16:11.910Z,33.23
2019-02-07T15:18:40.297Z,26.77
2019-02-07T15:21:08.692Z,33.23
2019-02-07T15:23:37.083Z,38.73
2019-02-07T15:26:45.474Z,34.17
2019-02-07T15:29:15.982Z,40.47
2019-02-07T15:31:43.983Z,40.77
2019-02-07T15:34:12.418Z,30.53
2019-02-07T15:36:40.914Z,38.20
2019-02-07T15:39:49.255Z,36.73
2019-02-07T15:42:17.726Z,39.17
2019-02-07T15:45:05.415Z,38.00
2019-02-07T15:47:33.824Z,39.03
2019-02-07T15:50:42.495Z,41.50
2019-02-07T15:56:00.029Z,49.17
2019-02-07T15:58:47.619Z,127.47
2019-02-07T16:06:30.624Z,88.17
2019-02-07T16:09:00.746Z,78.47
2019-02-07T16:11:29.158Z,184.93
2019-02-07T16:13:57.611Z,95.87
2019-02-07T16:16:26.018Z,133.73
2019-02-07T16:19:13.658Z,141.93
2019-02-07T16:21:42.140Z,184.43
2019-02-07T16:27:05.494Z,52.83
2019-02-07T16:29:33.970Z,63.80
2019-02-07T16:32:42.428Z,62.87
2019-02-07T16:35:50.756Z,51.23
2019-02-07T16:41:33.468Z,68.53
2019-02-07T16:44:01.986Z,44.10
2019-02-07T16:46:30.472Z,36.13
2019-02-07T16:48:58.879Z,49.17
2019-02-07T16:51:29.025Z,46.63
2019-02-07T16:53:57.426Z,48.47
2019-02-07T16:56:25.824Z,44.23
2019-02-07T16:58:54.254Z,42.10
2019-02-07T17:01:22.659Z,43.13
2019-02-07T17:03:51.065Z,45.43
2019-02-07T17:06:19.566Z,50.77
2019-02-07T17:08:47.968Z,49.83
2019-02-07T17:11:16.378Z,44.07
2019-02-07T17:13:44.820Z,46.73
2019-02-07T17:16:32.548Z,47.23
2019-02-07T17:19:02.734Z,39.93
2019-02-07T17:21:31.141Z,40.17
2019-02-07T17:23:59.546Z,43.67
2019-02-07T17:26:47.323Z,47.10
2019-02-07T17:29:15.791Z,46.57
2019-02-07T17:31:44.197Z,42.03
2019-02-07T17:36:46.783Z,39.37
2019-02-07T17:39:15.270Z,44.30
2019-02-07T17:42:02.999Z,39.30
2019-02-07T17:50:00.835Z,41.77
2019-02-07T17:55:02.970Z,40.53
2019-02-07T17:57:31.379Z,42.37
2019-02-07T18:02:33.628Z,41.57
2019-02-07T18:10:32.425Z,41.47
2019-02-07T18:13:00.855Z,50.43
2019-02-07T18:15:48.588Z,48.50
2019-02-07T18:21:11.650Z,55.87
2019-02-07T18:23:40.053Z,48.67
2019-02-07T18:26:08.529Z,49.50
2019-02-07T18:31:11.531Z,41.70
2019-02-07T18:38:48.181Z,42.20
2019-02-07T18:41:16.661Z,47.03
2019-02-07T18:44:04.267Z,49.27
2019-02-07T18:46:32.688Z,44.70
2019-02-07T18:49:01.093Z,53.23
2019-02-07T18:51:29.497Z,47.43
2019-02-07T18:54:17.261Z,40.27
2019-02-07T18:56:45.666Z,44.13
2019-02-07T18:59:14.066Z,34.80
2019-02-07T19:01:42.562Z,38.43
2019-02-07T19:04:10.972Z,41.20
2019-02-07T19:06:39.369Z,35.63
2019-02-07T19:09:49.980Z,28.77
2019-02-07T19:12:37.790Z,31.60
2019-02-07T19:15:46.150Z,26.90
2019-02-07T19:18:14.548Z,31.03
2019-02-07T19:20:42.948Z,32.27
2019-02-07T19:23:30.807Z,31.33
2019-02-07T19:25:59.188Z,39.60
2019-02-07T19:28:27.583Z,33.80
2019-02-07T19:30:56.056Z,39.80
2019-02-07T19:33:43.708Z,38.97
2019-02-07T19:36:12.149Z,46.67
2019-02-07T19:38:40.560Z,30.17
2019-02-07T19:41:28.305Z,31.90
2019-02-07T19:43:56.707Z,27.43
2019-02-07T19:46:26.830Z,28.00
2019-02-07T19:48:55.274Z,27.97
2019-02-07T19:51:23.749Z,29.57
2019-02-07T19:59:13.790Z,30.50
2019-02-07T20:04:15.840Z,26.77
2019-02-07T20:06:44.255Z,29.37
2019-02-07T20:09:52.689Z,23.13
2019-02-07T20:12:21.100Z,22.37
2019-02-07T20:14:49.596Z,14.90
2019-02-07T20:19:52.178Z,14.80
2019-02-07T20:24:55.166Z,15.57
2019-02-07T20:27:23.588Z,13.00
2019-02-07T20:29:51.989Z,21.80
2019-02-07T20:32:20.393Z,16.17
2019-02-07T20:34:48.826Z,14.83
2019-02-07T20:37:18.947Z,12.77
2019-02-07T20:39:47.348Z,22.00
2019-02-07T20:42:28.348Z,13.30
2019-02-07T20:44:56.744Z,13.20
2019-02-07T20:47:25.145Z,16.40
2019-02-07T20:49:53.572Z,14.87
2019-02-07T20:52:27.263Z,10.33
2019-02-07T20:54:53.804Z,12.30
2019-02-07T20:58:02.160Z,14.07
2019-02-07T21:01:10.480Z,15.23
2019-02-07T21:06:12.922Z,27.37
2019-02-07T21:11:15.156Z,18.47
2019-02-07T21:13:43.572Z,16.23
2019-02-07T21:16:11.977Z,18.67
2019-02-07T21:18:40.378Z,19.50
2019-02-07T21:23:43.185Z,31.57
2019-02-07T21:28:46.265Z,15.67
2019-02-07T21:31:14.727Z,15.77
2019-02-07T21:33:43.126Z,18.63
2019-02-07T21:36:11.524Z,14.47
2019-02-07T21:43:47.648Z,15.03
2019-02-07T21:46:16.089Z,19.10
2019-02-07T21:48:44.575Z,14.10
2019-02-07T21:51:12.983Z,19.33
2019-02-07T21:53:43.139Z,16.47
2019-02-07T21:56:11.534Z,18.30
2019-02-07T21:58:39.943Z,16.33
2019-02-07T22:01:08.436Z,15.60
2019-02-07T22:03:36.833Z,15.30
2019-02-07T22:06:45.191Z,13.90
2019-02-07T22:12:21.756Z,14.93
2019-02-07T22:14:50.160Z,16.27
2019-02-07T22:17:18.579Z,13.63
2019-02-07T22:22:20.928Z,14.57
2019-02-07T22:24:49.328Z,17.90
2019-02-07T22:27:17.754Z,14.43
2019-02-07T22:29:46.156Z,18.03
2019-02-07T22:32:14.584Z,17.73
2019-02-07T22:34:43.008Z,17.23
2019-02-07T22:37:11.404Z,22.10
2019-02-07T22:39:41.608Z,20.70
2019-02-07T22:44:44.467Z,14.40
2019-02-07T22:47:12.892Z,13.93
2019-02-07T22:49:41.295Z,24.00
2019-02-07T22:52:11.299Z,18.70
2019-02-07T22:54:41.475Z,18.97
2019-02-07T22:57:09.881Z,15.73
2019-02-07T22:59:38.278Z,16.93
2019-02-07T23:02:46.714Z,15.77
2019-02-07T23:05:55.095Z,16.10
2019-02-07T23:12:00.129Z,19.23
2019-02-07T23:14:28.534Z,20.37
2019-02-07T23:16:57.009Z,16.63
2019-02-07T23:21:59.920Z,10.37
2019-02-07T23:24:28.352Z,12.53
2019-02-07T23:26:56.825Z,10.20
2019-02-07T23:29:25.223Z,5.40
2019-02-07T23:31:53.636Z,4.43
2019-02-07T23:34:22.022Z,7.30
2019-02-07T23:37:09.754Z,2.10
2019-02-07T23:39:38.149Z,1.97
2019-02-07T23:42:06.546Z,2.13
2019-02-07T23:47:09.457Z,3.07
2019-02-07T23:49:37.915Z,5.30
2019-02-07T23:52:25.616Z,1.47
2019-02-07T23:54:54.049Z,2.07
